Terminal Aerodrome Forecast
Issued by NWS Denver/Boulder, CO

Home | Current Version | Previous Version | Text Only | Print | Product List | Glossary On
Versions: 1 2 3 4 5 6 7 8 9 10 11 12 13 14 15 16 17 18 19 20 21 22 23 24 25 26 27 28 29 30 31 32 33 34 35 36 37 38 39 40 41 42 43 44 45 46
000
FTUS45 KBOU 260522
TAFDEN
TAF
KDEN 260522Z 2606/2712 17015KT P6SM SCT060 BKN100
     FM261000 25007KT P6SM VCSH BKN050 OVC070
     FM261300 35011KT P6SM VCSH BKN030 OVC050
      TEMPO 2614/2618 4SM -SHRA BKN015 OVC025
     FM261800 01014G24KT P6SM VCSH BKN020 OVC050
     FM262200 03009KT P6SM SCT040 BKN060
     FM270500 20007KT P6SM FEW060 BKN150=

USA.gov is the U.S. government's official web portal to all federal, state and local government web resources and services.